sensor_id;sensor_type;location;lat;lon;timestamp;temperature;humidity
28947;DHT22;16052;50.930;5.326;2022-07-01T00:00:57;15.50;99.90
28947;DHT22;16052;50.930;5.326;2022-07-01T00:03:23;15.60;99.90
28947;DHT22;16052;50.930;5.326;2022-07-01T00:05:49;15.40;99.90
28947;DHT22;16052;50.930;5.326;2022-07-01T00:08:14;15.20;99.90
28947;DHT22;16052;50.930;5.326;2022-07-01T00:10:40;15.30;99.90
28947;DHT22;16052;50.930;5.326;2022-07-01T00:13:06;15.30;99.90
28947;DHT22;16052;50.930;5.326;2022-07-01T00:15:32;15.40;99.90
28947;DHT22;16052;50.930;5.326;2022-07-01T00:17:58;15.20;99.90
28947;DHT22;16052;50.930;5.326;2022-07-01T00:20:24;15.30;99.90
28947;DHT22;16052;50.930;5.326;2022-07-01T00:22:50;15.00;99.90
28947;DHT22;16052;50.930;5.326;2022-07-01T00:25:16;15.00;99.90
28947;DHT22;16052;50.930;5.326;2022-07-01T00:27:41;15.10;99.90
28947;DHT22;16052;50.930;5.326;2022-07-01T00:30:08;15.30;99.90
28947;DHT22;16052;50.930;5.326;2022-07-01T00:32:35;15.40;99.90
28947;DHT22;16052;50.930;5.326;2022-07-01T00:35:01;15.40;99.90
28947;DHT22;16052;50.930;5.326;2022-07-01T00:37:27;15.50;99.90
28947;DHT22;16052;50.930;5.326;2022-07-01T00:39:52;15.50;99.90
28947;DHT22;16052;50.930;5.326;2022-07-01T00:42:19;15.40;99.90
28947;DHT22;16052;50.930;5.326;2022-07-01T00:44:44;15.50;99.90
28947;DHT22;16052;50.930;5.326;2022-07-01T00:47:11;15.50;99.90
28947;DHT22;16052;50.930;5.326;2022-07-01T00:49:39;15.50;99.90
28947;DHT22;16052;50.930;5.326;2022-07-01T00:52:06;15.50;99.90
28947;DHT22;16052;50.930;5.326;2022-07-01T00:54:35;15.30;99.90
28947;DHT22;16052;50.930;5.326;2022-07-01T00:57:09;15.20;99.90
28947;DHT22;16052;50.930;5.326;2022-07-01T00:59:35;15.00;99.90
28947;DHT22;16052;50.930;5.326;2022-07-01T01:02:02;15.10;99.90
28947;DHT22;16052;50.930;5.326;2022-07-01T01:04:28;14.90;99.90
28947;DHT22;16052;50.930;5.326;2022-07-01T01:06:53;14.80;99.90
28947;DHT22;16052;50.930;5.326;2022-07-01T01:09:19;14.80;99.90
28947;DHT22;16052;50.930;5.326;2022-07-01T01:11:45;14.80;99.90
28947;DHT22;16052;50.930;5.326;2022-07-01T01:14:10;14.50;99.90
28947;DHT22;16052;50.930;5.326;2022-07-01T01:16:36;14.70;99.90
28947;DHT22;16052;50.930;5.326;2022-07-01T01:19:06;14.80;99.90
28947;DHT22;16052;50.930;5.326;2022-07-01T01:21:36;15.00;99.90
28947;DHT22;16052;50.930;5.326;2022-07-01T01:24:02;15.00;99.90
28947;DHT22;16052;50.930;5.326;2022-07-01T01:26:28;14.90;99.90
28947;DHT22;16052;50.930;5.326;2022-07-01T01:28:55;14.80;99.90
28947;DHT22;16052;50.930;5.326;2022-07-01T01:31:31;14.80;99.90
28947;DHT22;16052;50.930;5.326;2022-07-01T01:34:01;14.80;99.90
28947;DHT22;16052;50.930;5.326;2022-07-01T01:36:27;14.80;99.90
28947;DHT22;16052;50.930;5.326;2022-07-01T01:38:53;14.80;99.90
28947;DHT22;16052;50.930;5.326;2022-07-01T01:41:21;14.70;99.90
28947;DHT22;16052;50.930;5.326;2022-07-01T01:43:47;14.70;99.90
28947;DHT22;16052;50.930;5.326;2022-07-01T01:46:12;14.60;99.90
28947;DHT22;16052;50.930;5.326;2022-07-01T01:48:39;14.50;99.90
28947;DHT22;16052;50.930;5.326;2022-07-01T01:51:04;14.50;99.90
28947;DHT22;16052;50.930;5.326;2022-07-01T01:53:30;14.60;99.90
28947;DHT22;16052;50.930;5.326;2022-07-01T01:55:55;14.50;99.90
28947;DHT22;16052;50.930;5.326;2022-07-01T01:58:21;14.50;99.90
28947;DHT22;16052;50.930;5.326;2022-07-01T02:00:47;14.60;99.90
28947;DHT22;16052;50.930;5.326;2022-07-01T02:03:13;14.50;99.90
28947;DHT22;16052;50.930;5.326;2022-07-01T02:05:38;14.50;99.90
28947;DHT22;16052;50.930;5.326;2022-07-01T02:08:04;14.40;99.90
28947;DHT22;16052;50.930;5.326;2022-07-01T02:10:30;14.50;99.90
28947;DHT22;16052;50.930;5.326;2022-07-01T02:12:55;14.40;99.90
28947;DHT22;16052;50.930;5.326;2022-07-01T02:15:21;14.50;99.90
28947;DHT22;16052;50.930;5.326;2022-07-01T02:17:46;14.50;99.90
28947;DHT22;16052;50.930;5.326;2022-07-01T02:20:12;14.60;99.90
28947;DHT22;16052;50.930;5.326;2022-07-01T02:22:41;14.70;99.90
28947;DHT22;16052;50.930;5.326;2022-07-01T02:25:08;14.70;99.90
28947;DHT22;16052;50.930;5.326;2022-07-01T02:27:34;14.50;99.90
28947;DHT22;16052;50.930;5.326;2022-07-01T02:29:59;14.40;99.90
28947;DHT22;16052;50.930;5.326;2022-07-01T02:32:25;14.30;99.90
28947;DHT22;16052;50.930;5.326;2022-07-01T02:34:51;14.40;99.90
28947;DHT22;16052;50.930;5.326;2022-07-01T02:37:17;14.40;99.90
28947;DHT22;16052;50.930;5.326;2022-07-01T02:39:42;14.50;99.90
28947;DHT22;16052;50.930;5.326;2022-07-01T02:42:08;14.30;99.90
28947;DHT22;16052;50.930;5.326;2022-07-01T02:44:56;14.40;99.90
28947;DHT22;16052;50.930;5.326;2022-07-01T02:47:22;14.40;99.90
28947;DHT22;16052;50.930;5.326;2022-07-01T02:49:49;14.30;99.90
28947;DHT22;16052;50.930;5.326;2022-07-01T02:52:14;14.10;99.90
28947;DHT22;16052;50.930;5.326;2022-07-01T02:54:43;14.20;99.90
28947;DHT22;16052;50.930;5.326;2022-07-01T02:57:08;14.40;99.90
28947;DHT22;16052;50.930;5.326;2022-07-01T02:59:34;14.40;99.90
28947;DHT22;16052;50.930;5.326;2022-07-01T03:02:00;14.50;99.90
28947;DHT22;16052;50.930;5.326;2022-07-01T03:04:25;14.50;99.90
28947;DHT22;16052;50.930;5.326;2022-07-01T03:06:51;14.60;99.90
28947;DHT22;16052;50.930;5.326;2022-07-01T03:09:17;14.60;99.90
28947;DHT22;16052;50.930;5.326;2022-07-01T03:11:43;14.60;99.90
28947;DHT22;16052;50.930;5.326;2022-07-01T03:14:08;14.70;99.90
28947;DHT22;16052;50.930;5.326;2022-07-01T03:16:34;14.70;99.90
28947;DHT22;16052;50.930;5.326;2022-07-01T03:18:59;14.70;99.90
28947;DHT22;16052;50.930;5.326;2022-07-01T03:21:27;14.50;99.90
28947;DHT22;16052;50.930;5.326;2022-07-01T03:23:52;14.60;99.90
28947;DHT22;16052;50.930;5.326;2022-07-01T03:26:19;14.70;99.90
28947;DHT22;16052;50.930;5.326;2022-07-01T03:28:45;14.60;99.90
28947;DHT22;16052;50.930;5.326;2022-07-01T03:31:10;14.60;99.90
28947;DHT22;16052;50.930;5.326;2022-07-01T03:33:36;14.40;99.90
28947;DHT22;16052;50.930;5.326;2022-07-01T03:36:02;14.30;99.90
28947;DHT22;16052;50.930;5.326;2022-07-01T03:38:27;14.30;99.90
28947;DHT22;16052;50.930;5.326;2022-07-01T03:40:53;14.30;99.90
28947;DHT22;16052;50.930;5.326;2022-07-01T03:43:19;14.40;99.90
28947;DHT22;16052;50.930;5.326;2022-07-01T03:45:44;14.30;99.90
28947;DHT22;16052;50.930;5.326;2022-07-01T03:48:10;14.20;99.90
28947;DHT22;16052;50.930;5.326;2022-07-01T03:50:36;14.30;99.90
28947;DHT22;16052;50.930;5.326;2022-07-01T03:53:02;14.40;99.90
28947;DHT22;16052;50.930;5.326;2022-07-01T03:55:46;14.40;99.90
28947;DHT22;16052;50.930;5.326;2022-07-01T03:58:11;14.40;99.90
28947;DHT22;16052;50.930;5.326;2022-07-01T04:00:38;14.50;99.90
28947;DHT22;16052;50.930;5.326;2022-07-01T04:03:05;14.50;99.90
28947;DHT22;16052;50.930;5.326;2022-07-01T04:05:35;14.30;99.90
28947;DHT22;16052;50.930;5.326;2022-07-01T04:08:04;14.30;99.90
28947;DHT22;16052;50.930;5.326;2022-07-01T04:10:31;14.30;99.90
28947;DHT22;16052;50.930;5.326;2022-07-01T04:12:59;14.40;99.90
28947;DHT22;16052;50.930;5.326;2022-07-01T04:15:25;14.50;99.90
28947;DHT22;16052;50.930;5.326;2022-07-01T04:17:51;14.50;99.90
28947;DHT22;16052;50.930;5.326;2022-07-01T04:20:17;14.50;99.90
28947;DHT22;16052;50.930;5.326;2022-07-01T04:22:42;14.40;99.90
28947;DHT22;16052;50.930;5.326;2022-07-01T04:25:08;14.40;99.90
28947;DHT22;16052;50.930;5.326;2022-07-01T04:27:34;14.50;99.90
28947;DHT22;16052;50.930;5.326;2022-07-01T04:30:00;14.50;99.90
28947;DHT22;16052;50.930;5.326;2022-07-01T04:32:28;14.70;99.90
28947;DHT22;16052;50.930;5.326;2022-07-01T04:34:54;14.70;99.90
28947;DHT22;16052;50.930;5.326;2022-07-01T04:37:21;14.70;99.90
28947;DHT22;16052;50.930;5.326;2022-07-01T04:39:46;14.70;99.90
28947;DHT22;16052;50.930;5.326;2022-07-01T04:42:12;14.60;99.90
28947;DHT22;16052;50.930;5.326;2022-07-01T04:44:39;14.60;99.90
28947;DHT22;16052;50.930;5.326;2022-07-01T04:47:05;14.60;99.90
28947;DHT22;16052;50.930;5.326;2022-07-01T04:49:31;14.80;99.90
28947;DHT22;16052;50.930;5.326;2022-07-01T04:51:57;14.70;99.90
28947;DHT22;16052;50.930;5.326;2022-07-01T04:54:24;14.70;99.90
28947;DHT22;16052;50.930;5.326;2022-07-01T04:56:51;14.80;99.90
28947;DHT22;16052;50.930;5.326;2022-07-01T04:59:18;14.80;99.90
28947;DHT22;16052;50.930;5.326;2022-07-01T05:01:46;14.90;99.90
28947;DHT22;16052;50.930;5.326;2022-07-01T05:04:17;14.90;99.90
28947;DHT22;16052;50.930;5.326;2022-07-01T05:06:43;14.90;99.90
28947;DHT22;16052;50.930;5.326;2022-07-01T05:09:09;14.90;99.90
28947;DHT22;16052;50.930;5.326;2022-07-01T05:11:34;14.90;99.90
28947;DHT22;16052;50.930;5.326;2022-07-01T05:14:00;15.00;99.90
28947;DHT22;16052;50.930;5.326;2022-07-01T05:16:26;14.90;99.90
28947;DHT22;16052;50.930;5.326;2022-07-01T05:18:52;14.90;99.90
28947;DHT22;16052;50.930;5.326;2022-07-01T05:21:36;14.70;99.90
28947;DHT22;16052;50.930;5.326;2022-07-01T05:24:20;14.70;99.90
28947;DHT22;16052;50.930;5.326;2022-07-01T05:26:45;14.80;99.90
28947;DHT22;16052;50.930;5.326;2022-07-01T05:29:11;14.90;99.90
28947;DHT22;16052;50.930;5.326;2022-07-01T05:31:37;14.90;99.90
28947;DHT22;16052;50.930;5.326;2022-07-01T05:34:03;14.90;99.90
28947;DHT22;16052;50.930;5.326;2022-07-01T05:36:28;15.00;99.90
28947;DHT22;16052;50.930;5.326;2022-07-01T05:38:54;15.00;99.90
28947;DHT22;16052;50.930;5.326;2022-07-01T05:41:20;15.00;99.90
28947;DHT22;16052;50.930;5.326;2022-07-01T05:43:45;14.90;99.90
28947;DHT22;16052;50.930;5.326;2022-07-01T05:46:11;15.00;99.90
28947;DHT22;16052;50.930;5.326;2022-07-01T05:48:37;15.10;99.90
28947;DHT22;16052;50.930;5.326;2022-07-01T05:51:02;15.10;99.90
28947;DHT22;16052;50.930;5.326;2022-07-01T05:53:28;15.10;99.90
28947;DHT22;16052;50.930;5.326;2022-07-01T05:55:54;15.10;99.90
28947;DHT22;16052;50.930;5.326;2022-07-01T05:58:19;15.10;99.90
28947;DHT22;16052;50.930;5.326;2022-07-01T06:00:45;15.10;99.90
28947;DHT22;16052;50.930;5.326;2022-07-01T06:03:12;15.00;99.90
28947;DHT22;16052;50.930;5.326;2022-07-01T06:05:38;15.00;99.90
28947;DHT22;16052;50.930;5.326;2022-07-01T06:08:04;15.00;99.90
28947;DHT22;16052;50.930;5.326;2022-07-01T06:10:30;15.00;99.90
28947;DHT22;16052;50.930;5.326;2022-07-01T06:12:55;15.10;99.90
28947;DHT22;16052;50.930;5.326;2022-07-01T06:15:21;15.20;99.90
28947;DHT22;16052;50.930;5.326;2022-07-01T06:17:47;15.30;99.90
28947;DHT22;16052;50.930;5.326;2022-07-01T06:20:15;15.30;99.90
28947;DHT22;16052;50.930;5.326;2022-07-01T06:22:41;15.30;99.90
28947;DHT22;16052;50.930;5.326;2022-07-01T06:25:07;15.30;99.90
28947;DHT22;16052;50.930;5.326;2022-07-01T06:27:43;15.30;99.90
28947;DHT22;16052;50.930;5.326;2022-07-01T06:30:10;15.20;99.90
28947;DHT22;16052;50.930;5.326;2022-07-01T06:32:36;15.30;99.90
28947;DHT22;16052;50.930;5.326;2022-07-01T06:35:02;15.40;99.90
28947;DHT22;16052;50.930;5.326;2022-07-01T06:37:28;15.50;99.90
28947;DHT22;16052;50.930;5.326;2022-07-01T06:39:56;15.60;99.90
28947;DHT22;16052;50.930;5.326;2022-07-01T06:42:22;15.60;99.90
28947;DHT22;16052;50.930;5.326;2022-07-01T06:44:48;15.60;99.90
28947;DHT22;16052;50.930;5.326;2022-07-01T06:47:14;15.80;99.90
28947;DHT22;16052;50.930;5.326;2022-07-01T06:49:39;15.70;99.90
28947;DHT22;16052;50.930;5.326;2022-07-01T06:52:05;15.80;99.90
28947;DHT22;16052;50.930;5.326;2022-07-01T06:54:31;15.90;99.90
28947;DHT22;16052;50.930;5.326;2022-07-01T06:56:57;15.90;99.90
28947;DHT22;16052;50.930;5.326;2022-07-01T06:59:22;16.00;99.90
28947;DHT22;16052;50.930;5.326;2022-07-01T07:01:48;15.90;99.90
28947;DHT22;16052;50.930;5.326;2022-07-01T07:04:15;15.90;99.90
28947;DHT22;16052;50.930;5.326;2022-07-01T07:06:40;15.90;99.90
28947;DHT22;16052;50.930;5.326;2022-07-01T07:09:06;16.00;99.90
28947;DHT22;16052;50.930;5.326;2022-07-01T07:11:32;15.90;99.90
28947;DHT22;16052;50.930;5.326;2022-07-01T07:13:58;15.80;99.90
28947;DHT22;16052;50.930;5.326;2022-07-01T07:16:23;15.70;99.90
28947;DHT22;16052;50.930;5.326;2022-07-01T07:18:50;15.80;99.90
28947;DHT22;16052;50.930;5.326;2022-07-01T07:21:16;15.90;99.90
28947;DHT22;16052;50.930;5.326;2022-07-01T07:23:43;15.80;99.90
28947;DHT22;16052;50.930;5.326;2022-07-01T07:26:09;15.90;99.90
28947;DHT22;16052;50.930;5.326;2022-07-01T07:28:35;15.90;99.90
28947;DHT22;16052;50.930;5.326;2022-07-01T07:31:01;15.90;99.90
28947;DHT22;16052;50.930;5.326;2022-07-01T07:33:26;16.00;99.90
28947;DHT22;16052;50.930;5.326;2022-07-01T07:35:52;15.90;99.90
28947;DHT22;16052;50.930;5.326;2022-07-01T07:38:18;15.80;99.90
28947;DHT22;16052;50.930;5.326;2022-07-01T07:40:44;15.90;99.90
28947;DHT22;16052;50.930;5.326;2022-07-01T07:43:09;15.90;99.90
28947;DHT22;16052;50.930;5.326;2022-07-01T07:45:35;16.00;99.90
28947;DHT22;16052;50.930;5.326;2022-07-01T07:48:02;16.10;99.90
28947;DHT22;16052;50.930;5.326;2022-07-01T07:50:29;16.10;98.40
28947;DHT22;16052;50.930;5.326;2022-07-01T07:52:56;16.10;99.70
28947;DHT22;16052;50.930;5.326;2022-07-01T07:55:22;16.10;98.20
28947;DHT22;16052;50.930;5.326;2022-07-01T07:57:48;16.20;99.90
28947;DHT22;16052;50.930;5.326;2022-07-01T08:00:14;16.30;99.90
28947;DHT22;16052;50.930;5.326;2022-07-01T08:02:41;16.40;99.90
28947;DHT22;16052;50.930;5.326;2022-07-01T08:05:08;16.50;95.60
28947;DHT22;16052;50.930;5.326;2022-07-01T08:07:36;16.70;95.20
28947;DHT22;16052;50.930;5.326;2022-07-01T08:10:04;16.60;90.20
28947;DHT22;16052;50.930;5.326;2022-07-01T08:12:29;16.60;81.20
28947;DHT22;16052;50.930;5.326;2022-07-01T08:14:55;16.50;81.60
28947;DHT22;16052;50.930;5.326;2022-07-01T08:17:21;16.50;77.50
28947;DHT22;16052;50.930;5.326;2022-07-01T08:19:46;16.60;64.50
28947;DHT22;16052;50.930;5.326;2022-07-01T08:22:14;16.70;72.90
28947;DHT22;16052;50.930;5.326;2022-07-01T08:24:40;16.80;65.40
28947;DHT22;16052;50.930;5.326;2022-07-01T08:27:05;16.80;67.00
28947;DHT22;16052;50.930;5.326;2022-07-01T08:29:31;16.60;61.10
28947;DHT22;16052;50.930;5.326;2022-07-01T08:31:57;16.70;50.50
28947;DHT22;16052;50.930;5.326;2022-07-01T08:34:23;16.70;61.30
28947;DHT22;16052;50.930;5.326;2022-07-01T08:36:48;16.80;61.40
28947;DHT22;16052;50.930;5.326;2022-07-01T08:39:14;17.00;56.30
28947;DHT22;16052;50.930;5.326;2022-07-01T08:41:41;17.10;57.30
28947;DHT22;16052;50.930;5.326;2022-07-01T08:44:07;17.10;48.80
28947;DHT22;16052;50.930;5.326;2022-07-01T08:46:34;17.40;54.50
28947;DHT22;16052;50.930;5.326;2022-07-01T08:49:01;17.50;33.00
28947;DHT22;16052;50.930;5.326;2022-07-01T08:51:26;17.50;39.60
28947;DHT22;16052;50.930;5.326;2022-07-01T08:53:52;17.50;31.50
28947;DHT22;16052;50.930;5.326;2022-07-01T08:56:19;17.50;31.90
28947;DHT22;16052;50.930;5.326;2022-07-01T08:59:03;17.60;36.10
28947;DHT22;16052;50.930;5.326;2022-07-01T09:01:32;17.60;29.90
28947;DHT22;16052;50.930;5.326;2022-07-01T09:04:17;17.50;33.20
28947;DHT22;16052;50.930;5.326;2022-07-01T09:06:43;17.50;34.30
28947;DHT22;16052;50.930;5.326;2022-07-01T09:09:20;17.50;30.00
28947;DHT22;16052;50.930;5.326;2022-07-01T09:11:52;17.30;41.00
28947;DHT22;16052;50.930;5.326;2022-07-01T09:14:22;17.30;46.50
28947;DHT22;16052;50.930;5.326;2022-07-01T09:16:51;17.30;27.20
28947;DHT22;16052;50.930;5.326;2022-07-01T09:19:18;17.40;30.40
28947;DHT22;16052;50.930;5.326;2022-07-01T09:21:59;17.50;29.00
28947;DHT22;16052;50.930;5.326;2022-07-01T09:24:34;17.60;29.10
28947;DHT22;16052;50.930;5.326;2022-07-01T09:27:11;17.70;37.40
28947;DHT22;16052;50.930;5.326;2022-07-01T09:29:44;18.00;33.50
28947;DHT22;16052;50.930;5.326;2022-07-01T09:32:12;18.20;27.90
28947;DHT22;16052;50.930;5.326;2022-07-01T09:37:06;18.30;16.20
28947;DHT22;16052;50.930;5.326;2022-07-01T09:39:46;18.20;16.60
28947;DHT22;16052;50.930;5.326;2022-07-01T09:42:13;18.40;19.70
28947;DHT22;16052;50.930;5.326;2022-07-01T09:47:24;18.70;21.70
28947;DHT22;16052;50.930;5.326;2022-07-01T09:49:50;18.70;11.60
28947;DHT22;16052;50.930;5.326;2022-07-01T09:52:17;18.60;13.60
28947;DHT22;16052;50.930;5.326;2022-07-01T09:54:44;18.40;13.90
28947;DHT22;16052;50.930;5.326;2022-07-01T09:57:13;18.50;7.20
28947;DHT22;16052;50.930;5.326;2022-07-01T09:59:38;18.40;11.70
28947;DHT22;16052;50.930;5.326;2022-07-01T10:02:06;18.50;14.30
28947;DHT22;16052;50.930;5.326;2022-07-01T10:04:35;18.50;7.70
28947;DHT22;16052;50.930;5.326;2022-07-01T10:07:29;18.30;16.00
28947;DHT22;16052;50.930;5.326;2022-07-01T10:12:55;18.10;13.70
28947;DHT22;16052;50.930;5.326;2022-07-01T10:15:23;18.10;22.80
28947;DHT22;16052;50.930;5.326;2022-07-01T10:17:52;18.10;23.00
28947;DHT22;16052;50.930;5.326;2022-07-01T10:20:28;18.10;12.00
28947;DHT22;16052;50.930;5.326;2022-07-01T10:23:06;18.20;14.40
28947;DHT22;16052;50.930;5.326;2022-07-01T10:28:28;18.20;10.30
28947;DHT22;16052;50.930;5.326;2022-07-01T10:41:34;18.50;8.60
28947;DHT22;16052;50.930;5.326;2022-07-01T10:44:09;18.60;6.90
28947;DHT22;16052;50.930;5.326;2022-07-01T10:46:53;18.70;9.30
28947;DHT22;16052;50.930;5.326;2022-07-01T10:52:11;18.70;3.90
28947;DHT22;16052;50.930;5.326;2022-07-01T11:02:38;18.50;10.60
28947;DHT22;16052;50.930;5.326;2022-07-01T11:05:08;18.50;8.70
28947;DHT22;16052;50.930;5.326;2022-07-01T11:07:37;18.50;10.50
28947;DHT22;16052;50.930;5.326;2022-07-01T11:10:06;18.50;8.50
28947;DHT22;16052;50.930;5.326;2022-07-01T11:12:33;18.40;1.00
28947;DHT22;16052;50.930;5.326;2022-07-01T11:15:00;18.30;14.10
28947;DHT22;16052;50.930;5.326;2022-07-01T11:17:31;18.40;18.50
28947;DHT22;16052;50.930;5.326;2022-07-01T11:19:59;18.60;1.00
28947;DHT22;16052;50.930;5.326;2022-07-01T11:22:31;18.70;1.00
28947;DHT22;16052;50.930;5.326;2022-07-01T11:25:04;18.90;1.00
28947;DHT22;16052;50.930;5.326;2022-07-01T11:27:33;18.90;1.00
28947;DHT22;16052;50.930;5.326;2022-07-01T11:30:08;18.90;1.00
28947;DHT22;16052;50.930;5.326;2022-07-01T11:32:47;19.00;1.00
28947;DHT22;16052;50.930;5.326;2022-07-01T11:35:22;19.20;1.00
28947;DHT22;16052;50.930;5.326;2022-07-01T11:38:17;19.30;1.00
28947;DHT22;16052;50.930;5.326;2022-07-01T11:41:04;19.20;1.00
28947;DHT22;16052;50.930;5.326;2022-07-01T11:43:35;19.00;1.00
28947;DHT22;16052;50.930;5.326;2022-07-01T11:46:03;19.00;1.00
28947;DHT22;16052;50.930;5.326;2022-07-01T11:48:49;18.90;1.00
28947;DHT22;16052;50.930;5.326;2022-07-01T11:51:21;18.90;1.00
28947;DHT22;16052;50.930;5.326;2022-07-01T11:53:54;18.80;1.00
28947;DHT22;16052;50.930;5.326;2022-07-01T11:56:42;18.70;1.00
28947;DHT22;16052;50.930;5.326;2022-07-01T11:59:12;18.60;1.00
28947;DHT22;16052;50.930;5.326;2022-07-01T12:01:38;18.60;1.00
28947;DHT22;16052;50.930;5.326;2022-07-01T12:04:07;18.70;1.00
28947;DHT22;16052;50.930;5.326;2022-07-01T12:06:49;18.60;1.00
28947;DHT22;16052;50.930;5.326;2022-07-01T12:09:16;18.80;5.00
28947;DHT22;16052;50.930;5.326;2022-07-01T12:11:52;19.00;6.50
28947;DHT22;16052;50.930;5.326;2022-07-01T12:14:28;19.10;1.00
28947;DHT22;16052;50.930;5.326;2022-07-01T12:17:00;19.10;1.00
28947;DHT22;16052;50.930;5.326;2022-07-01T12:19:39;19.20;4.00
28947;DHT22;16052;50.930;5.326;2022-07-01T12:22:14;19.30;5.00
28947;DHT22;16052;50.930;5.326;2022-07-01T12:24:42;19.50;1.00
28947;DHT22;16052;50.930;5.326;2022-07-01T12:27:09;19.60;1.00
28947;DHT22;16052;50.930;5.326;2022-07-01T12:32:24;19.60;1.00
28947;DHT22;16052;50.930;5.326;2022-07-01T12:34:58;19.60;1.00
28947;DHT22;16052;50.930;5.326;2022-07-01T12:37:35;19.40;1.00
28947;DHT22;16052;50.930;5.326;2022-07-01T12:40:23;19.50;1.00
28947;DHT22;16052;50.930;5.326;2022-07-01T12:42:49;19.60;1.00
28947;DHT22;16052;50.930;5.326;2022-07-01T12:45:23;19.80;1.00
28947;DHT22;16052;50.930;5.326;2022-07-01T12:47:51;19.60;1.00
28947;DHT22;16052;50.930;5.326;2022-07-01T12:50:22;19.60;1.00
28947;DHT22;16052;50.930;5.326;2022-07-01T12:53:16;19.60;1.00
28947;DHT22;16052;50.930;5.326;2022-07-01T12:58:21;19.40;1.00
28947;DHT22;16052;50.930;5.326;2022-07-01T13:00:56;19.40;1.00
28947;DHT22;16052;50.930;5.326;2022-07-01T13:03:27;19.50;1.00
28947;DHT22;16052;50.930;5.326;2022-07-01T13:05:55;19.60;1.00
28947;DHT22;16052;50.930;5.326;2022-07-01T13:08:21;19.70;1.00
28947;DHT22;16052;50.930;5.326;2022-07-01T13:10:48;19.70;1.00
28947;DHT22;16052;50.930;5.326;2022-07-01T13:13:15;19.70;1.00
28947;DHT22;16052;50.930;5.326;2022-07-01T13:15:42;19.80;1.00
28947;DHT22;16052;50.930;5.326;2022-07-01T13:18:10;19.90;1.00
28947;DHT22;16052;50.930;5.326;2022-07-01T13:20:35;19.90;1.00
28947;DHT22;16052;50.930;5.326;2022-07-01T13:23:01;19.70;1.00
28947;DHT22;16052;50.930;5.326;2022-07-01T13:25:27;19.70;1.00
28947;DHT22;16052;50.930;5.326;2022-07-01T13:27:53;19.60;1.00
28947;DHT22;16052;50.930;5.326;2022-07-01T13:30:20;19.70;1.00
28947;DHT22;16052;50.930;5.326;2022-07-01T13:32:47;19.80;1.00
28947;DHT22;16052;50.930;5.326;2022-07-01T13:35:13;19.80;1.00
28947;DHT22;16052;50.930;5.326;2022-07-01T13:37:41;19.90;1.00
28947;DHT22;16052;50.930;5.326;2022-07-01T13:40:08;20.00;1.00
28947;DHT22;16052;50.930;5.326;2022-07-01T13:42:35;20.20;1.00
28947;DHT22;16052;50.930;5.326;2022-07-01T13:45:01;20.50;1.00
28947;DHT22;16052;50.930;5.326;2022-07-01T13:47:26;20.60;1.00
28947;DHT22;16052;50.930;5.326;2022-07-01T13:49:53;20.60;1.00
28947;DHT22;16052;50.930;5.326;2022-07-01T13:52:18;20.80;1.00
28947;DHT22;16052;50.930;5.326;2022-07-01T13:54:45;20.90;1.00
28947;DHT22;16052;50.930;5.326;2022-07-01T13:57:19;20.90;1.00
28947;DHT22;16052;50.930;5.326;2022-07-01T13:59:45;20.80;1.00
28947;DHT22;16052;50.930;5.326;2022-07-01T14:02:11;20.80;1.00
28947;DHT22;16052;50.930;5.326;2022-07-01T14:04:43;20.80;1.00
28947;DHT22;16052;50.930;5.326;2022-07-01T14:07:12;20.80;1.00
28947;DHT22;16052;50.930;5.326;2022-07-01T14:09:42;20.90;1.00
28947;DHT22;16052;50.930;5.326;2022-07-01T14:12:10;20.90;1.00
28947;DHT22;16052;50.930;5.326;2022-07-01T14:14:36;20.90;1.00
28947;DHT22;16052;50.930;5.326;2022-07-01T14:17:02;20.90;1.00
28947;DHT22;16052;50.930;5.326;2022-07-01T14:19:27;21.00;1.00
28947;DHT22;16052;50.930;5.326;2022-07-01T14:21:54;21.00;1.00
28947;DHT22;16052;50.930;5.326;2022-07-01T14:24:20;21.00;1.00
28947;DHT22;16052;50.930;5.326;2022-07-01T14:26:46;20.90;1.00
28947;DHT22;16052;50.930;5.326;2022-07-01T14:29:12;20.90;1.00
28947;DHT22;16052;50.930;5.326;2022-07-01T14:31:38;21.00;1.00
28947;DHT22;16052;50.930;5.326;2022-07-01T14:34:03;21.00;1.00
28947;DHT22;16052;50.930;5.326;2022-07-01T14:36:29;21.10;1.00
28947;DHT22;16052;50.930;5.326;2022-07-01T14:38:55;21.00;1.00
28947;DHT22;16052;50.930;5.326;2022-07-01T14:41:20;21.10;1.00
28947;DHT22;16052;50.930;5.326;2022-07-01T14:43:46;21.20;1.00
28947;DHT22;16052;50.930;5.326;2022-07-01T14:46:13;21.30;1.00
28947;DHT22;16052;50.930;5.326;2022-07-01T14:48:40;21.30;1.00
28947;DHT22;16052;50.930;5.326;2022-07-01T14:51:06;21.30;1.00
28947;DHT22;16052;50.930;5.326;2022-07-01T14:53:32;21.20;1.00
28947;DHT22;16052;50.930;5.326;2022-07-01T14:55:58;21.30;1.00
28947;DHT22;16052;50.930;5.326;2022-07-01T14:58:25;21.40;1.00
28947;DHT22;16052;50.930;5.326;2022-07-01T15:00:51;21.50;99.90
28947;DHT22;16052;50.930;5.326;2022-07-01T15:03:18;21.40;99.90
28947;DHT22;16052;50.930;5.326;2022-07-01T15:05:44;21.40;99.90
28947;DHT22;16052;50.930;5.326;2022-07-01T15:08:10;21.40;99.90
28947;DHT22;16052;50.930;5.326;2022-07-01T15:10:39;21.60;99.90
28947;DHT22;16052;50.930;5.326;2022-07-01T15:13:07;21.70;99.90
28947;DHT22;16052;50.930;5.326;2022-07-01T15:15:33;21.80;99.90
28947;DHT22;16052;50.930;5.326;2022-07-01T15:17:59;22.00;99.90
28947;DHT22;16052;50.930;5.326;2022-07-01T15:20:24;22.20;99.90
28947;DHT22;16052;50.930;5.326;2022-07-01T15:22:50;22.10;99.90
28947;DHT22;16052;50.930;5.326;2022-07-01T15:25:16;22.10;99.90
28947;DHT22;16052;50.930;5.326;2022-07-01T15:27:42;22.00;99.90
28947;DHT22;16052;50.930;5.326;2022-07-01T15:30:08;22.00;99.90
28947;DHT22;16052;50.930;5.326;2022-07-01T15:32:35;22.00;99.90
28947;DHT22;16052;50.930;5.326;2022-07-01T15:35:01;21.90;99.90
28947;DHT22;16052;50.930;5.326;2022-07-01T15:37:29;21.70;1.00
28947;DHT22;16052;50.930;5.326;2022-07-01T15:39:55;21.70;94.90
28947;DHT22;16052;50.930;5.326;2022-07-01T15:42:22;21.80;40.90
28947;DHT22;16052;50.930;5.326;2022-07-01T15:44:47;22.00;99.90
28947;DHT22;16052;50.930;5.326;2022-07-01T15:47:13;22.00;1.00
28947;DHT22;16052;50.930;5.326;2022-07-01T15:49:58;22.10;1.00
28947;DHT22;16052;50.930;5.326;2022-07-01T15:52:23;22.20;1.00
28947;DHT22;16052;50.930;5.326;2022-07-01T15:54:49;22.20;1.00
28947;DHT22;16052;50.930;5.326;2022-07-01T15:57:15;22.10;99.90
28947;DHT22;16052;50.930;5.326;2022-07-01T15:59:40;22.10;99.90
28947;DHT22;16052;50.930;5.326;2022-07-01T16:02:08;22.10;1.00
28947;DHT22;16052;50.930;5.326;2022-07-01T16:04:36;22.00;1.00
28947;DHT22;16052;50.930;5.326;2022-07-01T16:07:05;21.90;1.00
28947;DHT22;16052;50.930;5.326;2022-07-01T16:09:36;21.90;1.00
28947;DHT22;16052;50.930;5.326;2022-07-01T16:12:04;22.10;1.00
28947;DHT22;16052;50.930;5.326;2022-07-01T16:14:31;22.10;1.00
28947;DHT22;16052;50.930;5.326;2022-07-01T16:16:58;21.90;1.00